createdAt,value
2023-03-10T00:00:53.351Z,98392.56
2023-03-10T00:03:19.967Z,98387.38
2023-03-10T00:05:47.053Z,98378.81
2023-03-10T00:08:13.734Z,98380.28
2023-03-10T00:10:40.726Z,98382.75
2023-03-10T00:13:07.355Z,98376.56
2023-03-10T00:15:33.962Z,98379.41
2023-03-10T00:18:00.670Z,98361.47
2023-03-10T00:20:27.472Z,98358.53
2023-03-10T00:22:54.279Z,98350.16
2023-03-10T00:25:20.961Z,98344.50
2023-03-10T00:27:47.737Z,98349.91
2023-03-10T00:30:15.097Z,98349.66
2023-03-10T00:32:41.842Z,98337.63
2023-03-10T00:35:08.647Z,98340.97
2023-03-10T00:37:38.651Z,98335.84
2023-03-10T00:40:10.261Z,98342.50
2023-03-10T00:42:36.962Z,98336.63
2023-03-10T00:45:03.962Z,98334.50
2023-03-10T00:47:30.656Z,98343.19
2023-03-10T00:49:57.319Z,98328.03
2023-03-10T00:52:24.215Z,98327.53
2023-03-10T00:54:51.687Z,98325.75
2023-03-10T00:57:18.299Z,98323.88
2023-03-10T00:59:50.445Z,98313.88
2023-03-10T01:02:20.611Z,98311.00
2023-03-10T01:04:48.480Z,98311.81
2023-03-10T01:07:15.275Z,98303.63
2023-03-10T01:09:42.565Z,98301.97
2023-03-10T01:12:09.338Z,98297.56
2023-03-10T01:14:35.940Z,98295.38
2023-03-10T01:17:04.142Z,98281.81
2023-03-10T01:19:31.191Z,98288.38
2023-03-10T01:21:57.972Z,98279.22
2023-03-10T01:24:24.610Z,98272.84
2023-03-10T01:26:51.283Z,98269.25
2023-03-10T01:29:18.050Z,98262.97
2023-03-10T01:31:44.883Z,98266.44
2023-03-10T01:34:11.556Z,98261.28
2023-03-10T01:36:41.604Z,98261.59
2023-03-10T01:39:08.288Z,98262.25
2023-03-10T01:41:39.435Z,98256.06
2023-03-10T01:44:15.792Z,98249.22
2023-03-10T01:46:47.739Z,98243.72
2023-03-10T01:49:27.774Z,98241.16
2023-03-10T01:52:00.578Z,98241.50
2023-03-10T01:54:34.232Z,98236.00
2023-03-10T01:57:01.036Z,98228.78
2023-03-10T01:59:28.617Z,98229.28
2023-03-10T02:01:57.781Z,98229.97
2023-03-10T02:04:44.747Z,98228.25
2023-03-10T02:07:13.045Z,98221.38
2023-03-10T02:09:44.165Z,98220.69
2023-03-10T02:12:12.705Z,98210.72
2023-03-10T02:14:39.932Z,98205.84
2023-03-10T02:17:11.157Z,98209.53
2023-03-10T02:20:12.120Z,98201.88
2023-03-10T02:22:40.043Z,98200.25
2023-03-10T02:25:30.286Z,98195.78
2023-03-10T02:27:58.007Z,98195.94
2023-03-10T02:30:29.225Z,98194.63
2023-03-10T02:33:01.440Z,98187.09
2023-03-10T02:35:28.642Z,98192.88
2023-03-10T02:38:00.706Z,98186.41
2023-03-10T02:40:57.258Z,98186.72
2023-03-10T02:43:34.675Z,98178.53
2023-03-10T02:46:18.271Z,98173.34
2023-03-10T02:48:45.947Z,98176.34
2023-03-10T02:51:39.479Z,98175.97
2023-03-10T02:54:12.046Z,98167.28
2023-03-10T02:56:40.728Z,98161.03
2023-03-10T02:59:09.078Z,98161.63
2023-03-10T03:01:38.162Z,98152.75
2023-03-10T03:04:06.162Z,98153.69
2023-03-10T03:06:32.946Z,98157.25
2023-03-10T03:09:00.510Z,98158.63
2023-03-10T03:11:29.461Z,98155.66
2023-03-10T03:13:56.170Z,98153.25
2023-03-10T03:16:23.947Z,98152.97
2023-03-10T03:18:54.775Z,98163.94
2023-03-10T03:21:23.157Z,98161.63
2023-03-10T03:23:50.097Z,98166.63
2023-03-10T03:26:23.675Z,98156.69
2023-03-10T03:28:53.521Z,98148.91
2023-03-10T03:31:25.683Z,98158.28
2023-03-10T03:34:01.649Z,98163.63
2023-03-10T03:36:28.420Z,98154.00
2023-03-10T03:38:56.474Z,98149.97
2023-03-10T03:41:24.696Z,98142.22
2023-03-10T03:43:51.324Z,98127.19
2023-03-10T03:46:18.371Z,98132.69
2023-03-10T03:48:45.143Z,98143.31
2023-03-10T03:51:12.455Z,98136.78
2023-03-10T03:53:41.453Z,98132.47
2023-03-10T03:56:08.405Z,98126.28
2023-03-10T03:58:37.371Z,98124.50
2023-03-10T04:01:04.169Z,98129.16
2023-03-10T04:03:36.901Z,98126.88
2023-03-10T04:06:05.942Z,98124.41
2023-03-10T04:08:32.752Z,98124.00
2023-03-10T04:10:59.536Z,98121.69
2023-03-10T04:13:28.976Z,98115.06
2023-03-10T04:15:58.374Z,98112.38
2023-03-10T04:18:29.052Z,98123.63
2023-03-10T04:20:56.101Z,98108.75
2023-03-10T04:23:22.922Z,98125.84
2023-03-10T04:25:49.735Z,98122.66
2023-03-10T04:28:17.529Z,98119.41
2023-03-10T04:30:46.141Z,98118.91
2023-03-10T04:33:13.559Z,98121.81
2023-03-10T04:35:44.333Z,98107.06
2023-03-10T04:38:16.135Z,98118.97
2023-03-10T04:40:42.892Z,98120.06
2023-03-10T04:43:09.998Z,98106.31
2023-03-10T04:45:37.520Z,98107.72
2023-03-10T04:48:04.521Z,98103.16
2023-03-10T04:50:31.273Z,98111.44
2023-03-10T04:52:58.031Z,98107.06
2023-03-10T04:55:28.776Z,98108.41
2023-03-10T04:57:56.016Z,98101.72
2023-03-10T05:00:23.326Z,98096.13
2023-03-10T05:02:52.836Z,98096.13
2023-03-10T05:05:19.896Z,98091.13
2023-03-10T05:07:47.025Z,98093.78
2023-03-10T05:10:13.693Z,98090.69
2023-03-10T05:12:42.265Z,98095.03
2023-03-10T05:15:10.487Z,98086.69
2023-03-10T05:17:37.498Z,98088.75
2023-03-10T05:20:07.900Z,98079.09
2023-03-10T05:22:36.740Z,98077.00
2023-03-10T05:25:05.522Z,98066.97
2023-03-10T05:27:38.118Z,98066.19
2023-03-10T05:30:07.104Z,98060.72
2023-03-10T05:32:35.402Z,98054.97
2023-03-10T05:35:03.928Z,98044.66
2023-03-10T05:37:38.041Z,98044.63
2023-03-10T05:40:14.068Z,98051.38
2023-03-10T05:42:41.117Z,98058.59
2023-03-10T05:45:08.470Z,98058.59
2023-03-10T05:47:37.320Z,98060.75
2023-03-10T05:50:05.712Z,98052.53
2023-03-10T05:52:36.735Z,98052.91
2023-03-10T05:55:04.122Z,98049.25
2023-03-10T05:57:30.738Z,98042.25
2023-03-10T05:59:57.517Z,98040.44
2023-03-10T06:02:24.307Z,98032.69
2023-03-10T06:04:50.918Z,98026.94
2023-03-10T06:07:17.849Z,98029.94
2023-03-10T06:09:44.790Z,98017.81
2023-03-10T06:12:11.446Z,98020.78
2023-03-10T06:14:38.517Z,98009.75
2023-03-10T06:17:05.192Z,98017.88
2023-03-10T06:19:31.827Z,98010.44
2023-03-10T06:21:58.449Z,98014.81
2023-03-10T06:24:27.428Z,98014.81
2023-03-10T06:26:54.491Z,98013.72
2023-03-10T06:29:21.476Z,98010.34
2023-03-10T06:31:48.187Z,98016.41
2023-03-10T06:34:15.161Z,98014.13
2023-03-10T06:36:41.863Z,98013.13
2023-03-10T06:39:08.946Z,98020.38
2023-03-10T06:41:37.113Z,98020.38
2023-03-10T06:44:04.316Z,98012.03
2023-03-10T06:46:31.003Z,98007.69
2023-03-10T06:48:57.628Z,98006.84
2023-03-10T06:51:24.342Z,98012.81
2023-03-10T06:53:51.105Z,98003.19
2023-03-10T06:56:22.063Z,98009.03
2023-03-10T06:58:49.090Z,98005.78
2023-03-10T07:01:30.243Z,98013.25
2023-03-10T07:03:57.449Z,97993.94
2023-03-10T07:06:24.660Z,98008.94
2023-03-10T07:08:51.799Z,98008.47
2023-03-10T07:11:18.953Z,98001.88
2023-03-10T07:13:45.726Z,98004.28
2023-03-10T07:16:12.400Z,98005.06
2023-03-10T07:18:39.074Z,98011.22
2023-03-10T07:21:10.606Z,98004.78
2023-03-10T07:23:37.764Z,98015.03
2023-03-10T07:26:07.892Z,98014.63
2023-03-10T07:28:37.999Z,98012.94
2023-03-10T07:31:07.199Z,98006.53
2023-03-10T07:33:34.376Z,98006.25
2023-03-10T07:36:10.309Z,98014.00
2023-03-10T07:38:37.189Z,98024.66
2023-03-10T07:41:09.132Z,98031.81
2023-03-10T07:43:36.557Z,98033.31
2023-03-10T07:46:07.938Z,98037.72
2023-03-10T07:48:34.925Z,98027.53
2023-03-10T07:51:01.959Z,98024.16
2023-03-10T07:53:29.702Z,98014.34
2023-03-10T07:55:56.480Z,98020.09
2023-03-10T07:58:23.330Z,98024.19
2023-03-10T08:00:57.465Z,98034.13
2023-03-10T08:03:26.120Z,98035.50
2023-03-10T08:05:52.860Z,98042.28
2023-03-10T08:08:20.053Z,98030.75
2023-03-10T08:10:47.826Z,98055.16
2023-03-10T08:13:14.706Z,98040.84
2023-03-10T08:15:41.675Z,98044.84
2023-03-10T08:18:08.679Z,98043.44
2023-03-10T08:20:36.742Z,98046.91
2023-03-10T08:23:04.137Z,98054.84
2023-03-10T08:25:31.244Z,98071.63
2023-03-10T08:27:58.160Z,98069.63
2023-03-10T08:30:26.101Z,98076.03
2023-03-10T08:32:52.853Z,98078.34
2023-03-10T08:35:19.805Z,98083.34
2023-03-10T08:37:46.503Z,98088.56
2023-03-10T08:40:14.994Z,98091.94
2023-03-10T08:42:42.007Z,98088.66
2023-03-10T08:45:09.126Z,98089.75
2023-03-10T08:47:36.158Z,98084.25
2023-03-10T08:50:04.872Z,98089.75
2023-03-10T08:52:31.778Z,98089.34
2023-03-10T08:54:59.890Z,98082.31
2023-03-10T08:57:26.746Z,98085.53
2023-03-10T08:59:53.854Z,98091.03
2023-03-10T09:02:21.940Z,98093.97
2023-03-10T09:04:50.356Z,98087.81
2023-03-10T09:07:17.581Z,98091.53
2023-03-10T09:09:44.685Z,98095.91
2023-03-10T09:12:12.268Z,98099.16
2023-03-10T09:14:38.965Z,98115.75
2023-03-10T09:17:06.060Z,98109.19
2023-03-10T09:19:32.799Z,98101.53
2023-03-10T09:22:00.911Z,98108.56
2023-03-10T09:24:28.283Z,98101.19
2023-03-10T09:26:56.097Z,98104.50
2023-03-10T09:29:36.498Z,98096.88
2023-03-10T09:32:09.026Z,98090.28
2023-03-10T09:34:35.800Z,98100.22
2023-03-10T09:37:02.402Z,98094.75
2023-03-10T09:39:29.155Z,98091.50
2023-03-10T09:42:11.988Z,98095.56
2023-03-10T09:44:52.579Z,98097.50
2023-03-10T09:47:46.961Z,98105.94
2023-03-10T09:50:32.262Z,98104.25
2023-03-10T09:53:07.262Z,98105.44
2023-03-10T09:55:47.909Z,98100.97
2023-03-10T09:58:32.568Z,98093.88
2023-03-10T10:01:00.911Z,98090.31
2023-03-10T10:03:50.153Z,98103.34
2023-03-10T10:06:28.290Z,98093.88
2023-03-10T10:09:04.795Z,98092.47
2023-03-10T10:11:34.327Z,98100.97
2023-03-10T10:14:30.055Z,98097.00
2023-03-10T10:17:18.345Z,98103.84
2023-03-10T10:19:47.850Z,98107.94
2023-03-10T10:22:28.482Z,98108.75
2023-03-10T10:25:20.294Z,98098.97
2023-03-10T10:27:51.519Z,98101.28
2023-03-10T10:30:34.190Z,98104.16
2023-03-10T10:33:02.024Z,98108.84
2023-03-10T10:35:31.790Z,98104.78
2023-03-10T10:38:17.272Z,98110.63
2023-03-10T10:40:51.512Z,98107.34
2023-03-10T10:43:19.687Z,98113.63
2023-03-10T10:45:54.373Z,98110.44
2023-03-10T10:48:35.136Z,98112.63
2023-03-10T10:51:02.415Z,98113.63
2023-03-10T10:53:34.438Z,98112.34
2023-03-10T10:56:00.981Z,98127.16
2023-03-10T10:58:35.008Z,98108.84
2023-03-10T11:01:05.443Z,98119.78
2023-03-10T11:03:36.752Z,98121.88
2023-03-10T11:06:15.515Z,98122.78
2023-03-10T11:08:45.367Z,98115.50
2023-03-10T11:11:38.582Z,98109.72
2023-03-10T11:14:32.410Z,98112.16
2023-03-10T11:17:18.833Z,98114.91
2023-03-10T11:20:02.243Z,98116.81
2023-03-10T11:22:39.308Z,98123.78
2023-03-10T11:25:19.103Z,98121.88
2023-03-10T11:28:02.577Z,98126.56
2023-03-10T11:30:34.382Z,98122.97
2023-03-10T11:33:34.858Z,98127.84
2023-03-10T11:36:17.295Z,98124.97
2023-03-10T11:38:48.543Z,98129.63
2023-03-10T11:41:39.621Z,98131.81
2023-03-10T11:44:17.758Z,98120.78
2023-03-10T11:47:03.917Z,98120.38
2023-03-10T11:49:40.110Z,98120.41
2023-03-10T11:52:17.140Z,98116.13
2023-03-10T11:54:53.240Z,98126.06
2023-03-10T11:57:25.482Z,98106.75
2023-03-10T11:59:56.430Z,98102.94
2023-03-10T12:02:41.931Z,98104.88
2023-03-10T12:05:20.960Z,98100.72
2023-03-10T12:07:52.997Z,98105.41
2023-03-10T12:10:21.909Z,98106.47
2023-03-10T12:12:50.463Z,98108.66
2023-03-10T12:15:23.301Z,98112.59
2023-03-10T12:17:52.745Z,98105.75
2023-03-10T12:20:19.397Z,98105.34
2023-03-10T12:22:54.659Z,98108.34
2023-03-10T12:25:30.473Z,98104.22
2023-03-10T12:28:16.152Z,98113.28
2023-03-10T12:30:50.859Z,98103.13
2023-03-10T12:33:39.521Z,98095.69
2023-03-10T12:36:13.161Z,98105.91
2023-03-10T12:38:42.792Z,98097.91
2023-03-10T12:41:10.352Z,98095.03
2023-03-10T12:43:48.791Z,98091.44
2023-03-10T12:46:21.368Z,98089.94
2023-03-10T12:48:53.686Z,98092.03
2023-03-10T12:51:25.462Z,98089.34
2023-03-10T12:54:02.487Z,98088.41
2023-03-10T12:56:36.802Z,98077.06
2023-03-10T12:59:17.322Z,98065.72
2023-03-10T13:01:55.468Z,98069.69
2023-03-10T13:04:23.426Z,98069.78
2023-03-10T13:06:50.264Z,98074.44
2023-03-10T13:09:42.304Z,98084.44
2023-03-10T13:12:45.859Z,98068.97
2023-03-10T13:15:23.859Z,98076.03
2023-03-10T13:17:51.540Z,98072.06
2023-03-10T13:20:19.377Z,98070.75
2023-03-10T13:22:58.051Z,98062.97
2023-03-10T13:25:25.650Z,98068.09
2023-03-10T13:27:52.847Z,98070.91
2023-03-10T13:30:22.309Z,98073.56
2023-03-10T13:33:01.105Z,98067.09
2023-03-10T13:35:35.991Z,98064.88
2023-03-10T13:38:24.554Z,98057.53
2023-03-10T13:40:57.414Z,98056.66
2023-03-10T13:43:34.753Z,98048.41
2023-03-10T13:46:04.035Z,98053.88
2023-03-10T13:48:32.297Z,98058.47
2023-03-10T13:51:05.143Z,98053.66
2023-03-10T13:53:31.992Z,98070.41
2023-03-10T13:55:58.698Z,98071.88
2023-03-10T13:58:26.202Z,98068.88
2023-03-10T14:00:56.255Z,98097.03
2023-03-10T14:03:23.180Z,98100.09
2023-03-10T14:05:49.981Z,98095.69
2023-03-10T14:08:34.784Z,98112.72
2023-03-10T14:11:33.788Z,98122.34
2023-03-10T14:14:01.865Z,98119.38
2023-03-10T14:16:48.641Z,98103.34
2023-03-10T14:19:44.909Z,98114.81
2023-03-10T14:22:31.411Z,98129.59
2023-03-10T14:25:00.628Z,98118.06
2023-03-10T14:27:28.024Z,98120.75
2023-03-10T14:29:57.689Z,98137.78
2023-03-10T14:32:25.176Z,98142.31
2023-03-10T14:34:52.081Z,98161.03
2023-03-10T14:37:18.719Z,98154.84
2023-03-10T14:39:45.511Z,98145.13
2023-03-10T14:42:20.640Z,98166.09
2023-03-10T14:44:48.790Z,98164.34
2023-03-10T14:47:16.478Z,98164.06
2023-03-10T14:49:43.532Z,98176.84
2023-03-10T14:52:17.810Z,98202.03
2023-03-10T14:54:44.698Z,98184.03
2023-03-10T14:57:13.855Z,98197.78
2023-03-10T14:59:40.770Z,98197.28
2023-03-10T15:02:22.180Z,98199.13
2023-03-10T15:04:49.268Z,98209.50
2023-03-10T15:07:17.549Z,98252.28
2023-03-10T15:09:45.129Z,98250.00
2023-03-10T15:12:15.270Z,98250.28
2023-03-10T15:14:51.825Z,98258.44
2023-03-10T15:17:19.313Z,98280.81
2023-03-10T15:19:46.224Z,98266.19
2023-03-10T15:22:13.510Z,98275.13
2023-03-10T15:24:40.375Z,98278.72
2023-03-10T15:27:07.432Z,98270.16
2023-03-10T15:29:34.135Z,98277.13
2023-03-10T15:32:01.692Z,98271.09
2023-03-10T15:34:28.489Z,98268.31
2023-03-10T15:36:56.444Z,98267.88
2023-03-10T15:39:31.398Z,98270.88
2023-03-10T15:41:58.517Z,98268.28
2023-03-10T15:44:25.298Z,98266.47
2023-03-10T15:46:54.728Z,98268.13
2023-03-10T15:49:21.546Z,98277.44
2023-03-10T15:51:48.299Z,98293.00
2023-03-10T15:54:15.031Z,98280.34
2023-03-10T15:56:41.704Z,98273.13
2023-03-10T15:59:08.589Z,98285.88
2023-03-10T16:01:35.354Z,98262.31
2023-03-10T16:04:05.671Z,98265.84
2023-03-10T16:06:34.126Z,98282.78
2023-03-10T16:09:01.326Z,98290.84
2023-03-10T16:11:28.441Z,98289.88
2023-03-10T16:13:55.180Z,98285.06
2023-03-10T16:16:26.230Z,98295.69
2023-03-10T16:18:53.267Z,98288.22
2023-03-10T16:21:20.405Z,98312.28
2023-03-10T16:23:47.130Z,98328.25
2023-03-10T16:26:22.047Z,98342.16
2023-03-10T16:28:53.962Z,98337.91
2023-03-10T16:31:26.891Z,98342.56
2023-03-10T16:33:54.480Z,98345.09
2023-03-10T16:36:23.766Z,98347.78
2023-03-10T16:38:53.341Z,98327.50
2023-03-10T16:41:20.916Z,98336.13
2023-03-10T16:43:47.754Z,98335.28
2023-03-10T16:46:19.852Z,98329.66
2023-03-10T16:48:47.983Z,98351.50
2023-03-10T16:51:21.005Z,98348.50
2023-03-10T16:53:48.717Z,98342.66
2023-03-10T16:56:15.912Z,98364.41
2023-03-10T16:58:42.802Z,98370.78
2023-03-10T17:01:09.784Z,98382.69
2023-03-10T17:03:39.892Z,98383.41
2023-03-10T17:06:16.201Z,98408.41
2023-03-10T17:08:43.342Z,98406.00
2023-03-10T17:11:21.327Z,98412.22
2023-03-10T17:13:49.661Z,98404.47
2023-03-10T17:16:18.002Z,98377.16
2023-03-10T17:18:45.216Z,98377.78
2023-03-10T17:21:17.286Z,98387.69
2023-03-10T17:23:44.724Z,98394.44
2023-03-10T17:26:12.216Z,98414.59
2023-03-10T17:28:40.146Z,98419.72
2023-03-10T17:31:12.688Z,98437.09
2023-03-10T17:33:41.801Z,98452.34
2023-03-10T17:36:12.075Z,98467.31
2023-03-10T17:38:39.828Z,98475.34
2023-03-10T17:41:11.795Z,98481.53
2023-03-10T17:43:39.081Z,98488.22
2023-03-10T17:46:09.003Z,98478.59
2023-03-10T17:48:35.886Z,98481.81
2023-03-10T17:51:03.811Z,98491.72
2023-03-10T17:53:31.039Z,98490.94
2023-03-10T17:55:58.367Z,98506.44
2023-03-10T17:58:26.882Z,98503.75
2023-03-10T18:00:53.602Z,98467.13
2023-03-10T18:03:20.619Z,98482.66
2023-03-10T18:05:48.031Z,98473.53
2023-03-10T18:08:14.792Z,98477.28
2023-03-10T18:10:41.759Z,98480.53
2023-03-10T18:13:11.773Z,98484.00
2023-03-10T18:15:38.903Z,98489.34
2023-03-10T18:18:05.756Z,98488.81
2023-03-10T18:20:32.725Z,98479.97
2023-03-10T18:23:00.483Z,98488.78
2023-03-10T18:25:27.159Z,98516.34
2023-03-10T18:27:53.783Z,98519.28
2023-03-10T18:30:20.512Z,98512.88
2023-03-10T18:32:47.263Z,98557.78
2023-03-10T18:35:14.031Z,98577.56
2023-03-10T18:37:40.776Z,98580.25
2023-03-10T18:40:09.146Z,98604.06
2023-03-10T18:42:36.017Z,98605.13
2023-03-10T18:45:03.040Z,98629.47
2023-03-10T18:47:30.337Z,98613.91
2023-03-10T18:49:58.481Z,98637.13
2023-03-10T18:52:25.620Z,98626.69
2023-03-10T18:54:52.330Z,98662.34
2023-03-10T18:57:19.059Z,98676.78
2023-03-10T18:59:45.910Z,98676.56
2023-03-10T19:02:14.663Z,98700.31
2023-03-10T19:04:41.615Z,98751.91
2023-03-10T19:07:08.489Z,98766.09
2023-03-10T19:09:35.136Z,98764.97
2023-03-10T19:12:01.795Z,98796.03
2023-03-10T19:14:28.462Z,98821.09
2023-03-10T19:16:55.150Z,98829.94
2023-03-10T19:19:21.821Z,98836.94
2023-03-10T19:21:48.581Z,98847.56
2023-03-10T19:24:15.186Z,98841.84
2023-03-10T19:26:43.390Z,98833.56
2023-03-10T19:29:10.030Z,98845.47
2023-03-10T19:31:36.727Z,98857.25
2023-03-10T19:34:03.517Z,98866.38
2023-03-10T19:36:30.270Z,98895.22
2023-03-10T19:38:57.053Z,98901.22
2023-03-10T19:41:23.749Z,98911.63
2023-03-10T19:43:54.598Z,98931.78
2023-03-10T19:46:21.392Z,98943.56
2023-03-10T19:48:48.308Z,98929.84
2023-03-10T19:51:23.864Z,98940.03
2023-03-10T19:53:52.161Z,98949.41
2023-03-10T19:56:19.801Z,98958.91
2023-03-10T19:58:48.545Z,98988.00
2023-03-10T20:01:23.114Z,98981.34
2023-03-10T20:03:51.675Z,98975.94
2023-03-10T20:06:18.549Z,98979.50
2023-03-10T20:08:45.203Z,98984.53
2023-03-10T20:11:14.729Z,99007.53
2023-03-10T20:13:42.869Z,99013.44
2023-03-10T20:16:12.910Z,99027.31
2023-03-10T20:18:40.113Z,99045.41
2023-03-10T20:21:07.905Z,99046.78
2023-03-10T20:23:34.672Z,99067.09
2023-03-10T20:26:03.749Z,99086.69
2023-03-10T20:28:33.728Z,99092.13
2023-03-10T20:31:00.476Z,99081.03
2023-03-10T20:33:27.526Z,99125.28
2023-03-10T20:35:54.718Z,99104.84
2023-03-10T20:38:21.488Z,99108.63
2023-03-10T20:40:48.717Z,99128.38
2023-03-10T20:43:15.376Z,99152.38
2023-03-10T20:45:42.542Z,99152.28
2023-03-10T20:48:09.513Z,99164.97
2023-03-10T20:50:36.504Z,99192.09
2023-03-10T20:53:03.391Z,99190.25
2023-03-10T20:55:31.383Z,99204.84
2023-03-10T20:57:59.973Z,99228.56
2023-03-10T21:00:28.956Z,99224.81
2023-03-10T21:02:57.330Z,99260.06
2023-03-10T21:05:26.216Z,99267.97
2023-03-10T21:07:53.303Z,99265.97
2023-03-10T21:10:20.654Z,99280.16
2023-03-10T21:12:47.400Z,99290.81
2023-03-10T21:15:16.012Z,99288.22
2023-03-10T21:17:43.414Z,99293.47
2023-03-10T21:20:11.581Z,99262.66
2023-03-10T21:22:39.879Z,99300.41
2023-03-10T21:25:10.111Z,99304.56
2023-03-10T21:27:36.703Z,99299.47
2023-03-10T21:30:07.825Z,99306.44
2023-03-10T21:32:34.496Z,99302.88
2023-03-10T21:35:01.276Z,99312.13
2023-03-10T21:37:28.258Z,99301.25
2023-03-10T21:39:54.914Z,99313.44
2023-03-10T21:42:21.563Z,99313.75
2023-03-10T21:44:48.509Z,99298.81
2023-03-10T21:47:15.539Z,99309.56
2023-03-10T21:49:42.104Z,99307.75
2023-03-10T21:52:09.918Z,99316.09
2023-03-10T21:54:36.606Z,99312.28
2023-03-10T21:57:03.457Z,99319.09
2023-03-10T21:59:30.124Z,99328.81
2023-03-10T22:01:56.957Z,99331.81
2023-03-10T22:04:23.912Z,99340.75
2023-03-10T22:06:50.600Z,99337.50
2023-03-10T22:09:20.096Z,99329.06
2023-03-10T22:11:47.490Z,99328.03
2023-03-10T22:14:15.787Z,99335.88
2023-03-10T22:16:42.506Z,99335.66
2023-03-10T22:19:09.160Z,99347.81
2023-03-10T22:21:35.765Z,99348.84
2023-03-10T22:24:03.133Z,99360.88
2023-03-10T22:26:29.753Z,99346.31
2023-03-10T22:28:56.591Z,99350.59
2023-03-10T22:31:23.764Z,99366.56
2023-03-10T22:33:50.391Z,99369.69
2023-03-10T22:36:18.453Z,99361.56
2023-03-10T22:38:45.096Z,99378.91
2023-03-10T22:41:13.789Z,99380.66
2023-03-10T22:43:41.181Z,99390.53
2023-03-10T22:46:10.905Z,99403.06
2023-03-10T22:48:37.836Z,99408.16
2023-03-10T22:51:09.780Z,99418.31
2023-03-10T22:53:38.148Z,99428.47
2023-03-10T22:56:05.425Z,99438.25
2023-03-10T22:58:32.369Z,99462.53
2023-03-10T23:00:59.686Z,99466.44
2023-03-10T23:03:26.687Z,99463.44
2023-03-10T23:05:53.516Z,99457.09
2023-03-10T23:08:20.388Z,99453.38
2023-03-10T23:10:47.073Z,99454.22
2023-03-10T23:13:15.564Z,99454.78
2023-03-10T23:15:43.176Z,99441.25
2023-03-10T23:18:10.285Z,99440.13
2023-03-10T23:20:42.933Z,99450.69
2023-03-10T23:23:14.595Z,99453.31
2023-03-10T23:25:44.400Z,99458.19
2023-03-10T23:28:11.466Z,99449.72
2023-03-10T23:30:39.855Z,99456.50
2023-03-10T23:33:10.409Z,99449.38
2023-03-10T23:35:37.268Z,99442.41
2023-03-10T23:38:05.901Z,99449.47
2023-03-10T23:40:34.485Z,99452.75
2023-03-10T23:43:02.689Z,99467.50
2023-03-10T23:45:31.511Z,99471.09
2023-03-10T23:48:01.640Z,99467.09
2023-03-10T23:50:31.156Z,99473.47
2023-03-10T23:52:58.118Z,99484.47
2023-03-10T23:55:28.281Z,99490.16
2023-03-10T23:57:55.097Z,99495.78
